Time;durP1;ratioP1;P1;durP2;ratioP2;P2;SDS_P1;SDS_P2;PMS_P1;PMS_P2;Temp;Humidity;BMP_temperature;BMP_pressure;BME280_temperature;BME280_humidity;BME280_pressure;Samples;Min_cycle;Max_cycle;Signal;HPM_P1;HPM_P2
2022/02/17 00:02:09;;;;;;;90.00;42.65;;;;;;;-1.63;86.50;97284.47;1709860;84;20985;-82
2022/02/17 00:04:36;;;;;;;86.92;41.85;;;;;;;-1.57;86.76;97277.16;1709970;83;21016;-82
2022/02/17 00:07:03;;;;;;;87.72;42.35;;;;;;;-1.50;86.76;97285.43;1708530;83;20976;-82
2022/02/17 00:09:30;;;;;;;73.70;33.50;;;;;;;-1.45;86.85;97272.48;1708725;83;21043;-82
2022/02/17 00:11:56;;;;;;;82.33;35.43;;;;;;;-1.45;87.92;97269.88;1708406;83;21035;-83
2022/02/17 00:14:23;;;;;;;75.03;34.27;;;;;;;-1.45;90.49;97276.38;1708478;82;21070;-83
2022/02/17 00:16:52;;;;;;;70.03;33.30;;;;;;;-1.42;89.14;97271.18;1707686;83;21111;-83
2022/02/17 00:19:20;;;;;;;73.33;35.95;;;;;;;-1.38;88.05;97270.34;1709538;83;20977;-83
2022/02/17 00:21:49;;;;;;;75.30;36.28;;;;;;;-1.31;88.00;97264.76;1709766;84;21114;-83
2022/02/17 00:24:19;;;;;;;72.72;35.03;;;;;;;-1.31;88.29;97258.26;1709357;84;21039;-83
2022/02/17 00:26:46;;;;;;;73.33;34.53;;;;;;;-1.30;87.62;97256.55;1708543;84;21052;-83
2022/02/17 00:29:13;;;;;;;76.02;35.45;;;;;;;-1.29;87.62;97244.83;1708043;83;21021;-83
2022/02/17 00:31:40;;;;;;;73.83;35.78;;;;;;;-1.29;87.59;97249.17;1708219;83;21402;-83
2022/02/17 00:34:13;;;;;;;71.65;34.98;;;;;;;-1.30;87.61;97237.05;1708285;83;21004;-82
2022/02/17 00:36:37;;;;;;;68.67;34.83;;;;;;;-1.30;87.53;97240.49;1708175;84;20985;-83
2022/02/17 00:39:05;;;;;;;67.15;32.23;;;;;;;-1.29;87.49;97229.67;1709988;83;21004;-83
2022/02/17 00:41:32;;;;;;;59.90;30.43;;;;;;;-1.30;87.39;97224.05;1709671;83;20988;-83
2022/02/17 00:44:00;;;;;;;64.40;31.30;;;;;;;-1.35;88.40;97224.00;1708632;84;21358;-82
2022/02/17 00:46:32;;;;;;;61.55;30.02;;;;;;;-1.34;87.89;97214.03;1708714;83;20996;-82
2022/02/17 00:48:59;;;;;;;72.80;35.25;;;;;;;-1.33;87.76;97216.65;1709531;83;21414;-82
2022/02/17 00:51:26;;;;;;;66.37;31.25;;;;;;;-1.36;87.84;97204.92;1709448;83;20984;-82
2022/02/17 00:53:52;;;;;;;57.53;28.73;;;;;;;-1.35;87.91;97200.61;1690091;84;21470;-82
2022/02/17 00:56:19;;;;;;;56.68;29.10;;;;;;;-1.36;87.55;97200.17;1708300;83;20984;-83
2022/02/17 00:58:47;;;;;;;64.97;30.27;;;;;;;-1.39;88.14;97190.63;1707537;84;21020;-83
2022/02/17 01:01:16;;;;;;;60.45;28.42;;;;;;;-1.39;88.03;97181.95;1707278;84;21398;-83
2022/02/17 01:03:42;;;;;;;61.10;30.57;;;;;;;-1.42;88.22;97172.86;1709201;83;21048;-83
2022/02/17 01:06:09;;;;;;;61.20;30.15;;;;;;;-1.49;87.88;97165.46;1709868;83;21394;-83
2022/02/17 01:08:37;;;;;;;63.38;29.75;;;;;;;-1.50;88.74;97171.08;1709688;83;21474;-82
2022/02/17 01:11:04;;;;;;;63.25;30.60;;;;;;;-1.47;88.27;97171.52;1709635;83;21048;-83
2022/02/17 01:13:31;;;;;;;58.17;29.23;;;;;;;-1.41;88.41;97172.84;1708886;82;21469;-82
2022/02/17 01:15:57;;;;;;;62.95;32.17;;;;;;;-1.36;88.59;97167.69;1712267;83;21047;-81
2022/02/17 01:18:24;;;;;;;63.98;31.73;;;;;;;-1.34;88.60;97166.83;1708389;83;21009;-83
2022/02/17 01:20:51;;;;;;;62.60;30.27;;;;;;;-1.34;88.63;97165.53;1707910;83;21044;-84
2022/02/17 01:23:18;;;;;;;64.85;31.30;;;;;;;-1.28;89.01;97162.52;1708224;83;21032;-83
2022/02/17 01:25:45;;;;;;;59.55;29.55;;;;;;;-1.36;89.57;97164.63;1708106;83;21509;-83
2022/02/17 01:28:12;;;;;;;62.67;29.30;;;;;;;-1.36;89.06;97167.23;1708257;84;21385;-83
2022/02/17 01:30:40;;;;;;;60.38;30.85;;;;;;;-1.35;89.14;97164.22;1708133;83;20985;-83
2022/02/17 01:33:08;;;;;;;58.85;28.95;;;;;;;-1.38;88.93;97155.09;1708731;83;21076;-83
2022/02/17 01:35:36;;;;;;;62.27;31.23;;;;;;;-1.36;88.55;97150.79;1710081;83;20984;-82
2022/02/17 01:38:04;;;;;;;59.25;29.18;;;;;;;-1.39;88.31;97138.65;1709845;83;20988;-83
2022/02/17 01:40:33;;;;;;;59.77;29.20;;;;;;;-1.43;88.34;97135.59;1710008;83;21481;-83
2022/02/17 01:43:01;;;;;;;62.78;31.25;;;;;;;-1.49;87.83;97131.23;1709323;84;20957;-83
2022/02/17 01:45:28;;;;;;;62.17;29.07;;;;;;;-1.57;88.08;97114.75;1708418;83;21091;-83
2022/02/17 01:47:55;;;;;;;56.40;27.25;;;;;;;-1.63;89.02;97112.11;1708394;83;21052;-83
2022/02/17 01:50:23;;;;;;;58.92;28.75;;;;;;;-1.72;89.61;97103.84;1708732;84;21044;-83
2022/02/17 01:52:50;;;;;;;55.52;27.45;;;;;;;-1.75;88.94;97094.31;1713613;83;21015;-83
2022/02/17 01:55:17;;;;;;;53.17;26.42;;;;;;;-1.73;89.43;97096.92;1710523;83;21020;-83
2022/02/17 01:57:43;;;;;;;53.48;26.15;;;;;;;-1.75;89.03;97083.03;1710088;83;21469;-83
2022/02/17 02:00:12;;;;;;;52.90;26.52;;;;;;;-1.80;89.17;97084.75;1709839;83;21304;-83
2022/02/17 02:02:42;;;;;;;53.63;27.10;;;;;;;-1.89;89.28;97072.59;1708438;83;21597;-83
2022/02/17 02:05:09;;;;;;;55.25;27.67;;;;;;;-1.88;89.23;97076.91;1708492;83;20989;-84
2022/02/17 02:07:38;;;;;;;56.13;27.55;;;;;;;-1.88;88.66;97071.30;1708462;83;21048;-84
2022/02/17 02:10:06;;;;;;;60.95;28.57;;;;;;;-1.90;89.37;97061.77;1708449;84;21004;-83
2022/02/17 02:12:34;;;;;;;58.50;29.10;;;;;;;-1.88;89.76;97071.72;1710091;82;21036;-83
2022/02/17 02:15:04;;;;;;;55.63;27.02;;;;;;;-1.85;88.94;97071.75;1711373;83;21004;-82
2022/02/17 02:17:33;;;;;;;56.05;28.02;;;;;;;-1.85;89.01;97070.45;1715428;83;21441;-83
2022/02/17 02:20:07;;;;;;;58.73;28.85;;;;;;;-1.83;88.69;97067.42;1721395;83;20972;-83
2022/02/17 02:22:34;;;;;;;64.85;28.60;;;;;;;-1.81;88.74;97066.13;1720960;83;21106;-83
2022/02/17 02:25:02;;;;;;;56.58;28.12;;;;;;;-1.80;88.69;97069.16;1721553;83;21405;-83
2022/02/17 02:27:30;;;;;;;60.58;28.47;;;;;;;-1.80;88.70;97067.44;1721393;83;21038;-83
2022/02/17 02:29:58;;;;;;;56.40;29.02;;;;;;;-1.78;88.85;97069.60;1721368;83;21102;-83
2022/02/17 02:32:27;;;;;;;63.95;29.65;;;;;;;-1.75;89.03;97081.73;1719618;83;21023;-82
2022/02/17 02:34:54;;;;;;;60.52;28.47;;;;;;;-1.74;88.46;97073.11;1719936;83;21058;-83
2022/02/17 02:37:20;;;;;;;65.90;30.20;;;;;;;-1.76;89.14;97079.59;1719952;83;21051;-83
2022/02/17 02:39:47;;;;;;;60.80;28.73;;;;;;;-1.86;89.11;97080.41;1719864;83;21024;-81
2022/02/17 02:42:16;;;;;;;62.27;28.90;;;;;;;-1.83;88.94;97067.42;1720930;83;21035;-80
2022/02/17 02:44:43;;;;;;;59.85;27.62;;;;;;;-1.85;89.98;97071.75;1721497;83;21040;-80
2022/02/17 02:47:10;;;;;;;51.40;24.82;;;;;;;-1.86;89.43;97075.22;1721452;82;21055;-82
2022/02/17 02:49:38;;;;;;;53.17;25.35;;;;;;;-1.93;88.78;97062.62;1721311;83;21078;-82
2022/02/17 02:52:07;;;;;;;47.90;24.23;;;;;;;-2.00;88.79;97068.63;1720358;83;20972;-82
2022/02/17 02:54:38;;;;;;;48.83;23.52;;;;;;;-2.14;89.47;97060.36;1720014;83;21019;-82
2022/02/17 02:57:04;;;;;;;50.60;25.43;;;;;;;-2.17;88.87;97062.92;1719857;83;21425;-82
2022/02/17 02:59:31;;;;;;;49.63;24.25;;;;;;;-2.19;88.81;97054.69;1703789;83;20988;-82
2022/02/17 03:01:59;;;;;;;52.93;26.23;;;;;;;-2.21;88.84;97052.53;1721289;83;21007;-80
2022/02/17 03:04:26;;;;;;;52.93;26.40;;;;;;;-2.26;88.78;97035.19;1721350;83;21418;-82
2022/02/17 03:06:52;;;;;;;53.85;26.97;;;;;;;-2.23;88.79;97036.05;1721285;83;21046;-83
2022/02/17 03:09:21;;;;;;;52.17;24.77;;;;;;;-2.28;88.73;97034.30;1720974;83;21016;-83
2022/02/17 03:11:47;;;;;;;54.33;26.15;;;;;;;-2.37;88.80;97038.58;1719995;83;21024;-83
2022/02/17 03:14:15;;;;;;;54.45;25.80;;;;;;;-2.40;88.65;97044.62;1718123;82;21020;-83
2022/02/17 03:16:42;;;;;;;49.27;24.35;;;;;;;-2.43;88.65;97032.50;1716038;83;21422;-82
2022/02/17 03:19:13;;;;;;;52.58;24.90;;;;;;;-2.45;88.95;97032.89;1723724;83;21045;-83
2022/02/17 03:21:39;;;;;;;45.65;23.02;;;;;;;-2.46;88.77;97014.75;1724284;83;21039;-83
2022/02/17 03:24:07;;;;;;;45.70;22.85;;;;;;;-2.44;88.72;97005.23;1724167;83;21040;-83
2022/02/17 03:26:35;;;;;;;47.65;23.27;;;;;;;-2.47;88.64;97003.91;1724341;83;21055;-83
2022/02/17 03:29:03;;;;;;;46.08;22.95;;;;;;;-2.55;88.83;96992.19;1723938;83;21035;-83
2022/02/17 03:31:31;;;;;;;51.13;25.88;;;;;;;-2.73;89.65;96992.52;1722694;83;21044;-83
2022/02/17 03:33:59;;;;;;;50.35;23.70;;;;;;;-2.69;89.22;96990.81;1721120;83;21038;-83
2022/02/17 03:36:26;;;;;;;50.63;24.50;;;;;;;-2.70;89.88;96989.08;1722604;83;21008;-83
2022/02/17 03:38:56;;;;;;;54.40;25.43;;;;;;;-2.67;89.44;96986.48;1722675;82;21007;-83
2022/02/17 03:41:24;;;;;;;51.70;24.72;;;;;;;-2.61;89.91;96992.16;1723940;83;20984;-82
2022/02/17 03:43:52;;;;;;;60.03;26.35;;;;;;;-2.70;90.10;96991.22;1722563;83;21015;-82
2022/02/17 03:46:21;;;;;;;52.85;25.90;;;;;;;-2.63;89.62;96971.84;1722184;83;21012;-82
2022/02/17 03:48:47;;;;;;;52.83;26.60;;;;;;;-2.57;90.29;96990.02;1698220;83;21000;-81
2022/02/17 03:51:16;;;;;;;60.28;29.77;;;;;;;-2.55;89.57;96985.70;1723687;83;21032;-84
2022/02/17 03:53:43;;;;;;;53.75;26.82;;;;;;;-2.47;90.01;96981.44;1722590;83;21600;-82
2022/02/17 03:56:10;;;;;;;53.20;25.68;;;;;;;-2.48;89.25;96981.00;1722665;83;20972;-82
2022/02/17 03:59:03;;;;;;;53.50;27.70;;;;;;;-2.45;89.52;96980.16;1693779;83;21027;-82
2022/02/17 04:01:33;;;;;;;58.75;27.80;;;;;;;-2.43;89.73;96985.79;1724329;83;21079;-81
2022/02/17 04:04:02;;;;;;;54.65;26.95;;;;;;;-2.36;89.20;96978.91;1724000;83;21019;-81
2022/02/17 04:06:29;;;;;;;56.23;27.20;;;;;;;-2.35;88.93;96965.48;1724043;83;21046;-81
2022/02/17 04:08:56;;;;;;;51.10;25.70;;;;;;;-2.37;88.82;96955.09;1723414;83;21051;-81
2022/02/17 04:11:26;;;;;;;54.95;26.02;;;;;;;-2.32;89.04;96948.19;1722563;83;21007;-82
2022/02/17 04:13:54;;;;;;;49.48;25.05;;;;;;;-2.26;89.20;96935.27;1723133;82;21087;-82
2022/02/17 04:16:22;;;;;;;56.92;27.02;;;;;;;-2.27;89.00;96930.94;1722508;83;21000;-82
2022/02/17 04:19:08;;;;;;;54.10;26.77;;;;;;;-2.22;89.24;96928.77;1723696;83;21059;-82
2022/02/17 04:21:36;;;;;;;58.48;26.48;;;;;;;-2.26;89.24;96925.30;1656854;85;21015;-82
2022/02/17 04:24:08;;;;;;;55.10;26.68;;;;;;;-2.32;90.00;96922.23;1694080;85;21006;-81
2022/02/17 04:26:36;;;;;;;58.05;26.27;;;;;;;-2.34;89.69;96906.22;1694663;85;21043;-81
2022/02/17 04:29:11;;;;;;;56.70;25.88;;;;;;;-2.33;89.44;96900.20;1708324;83;20968;-81
2022/02/17 04:31:39;;;;;;;59.53;26.87;;;;;;;-2.27;89.32;96879.45;1721965;83;21031;-81
2022/02/17 04:34:06;;;;;;;64.47;28.50;;;;;;;-2.23;89.56;96890.28;1724210;83;21003;-82
2022/02/17 04:36:33;;;;;;;63.75;27.95;;;;;;;-2.19;90.34;96902.42;1724020;83;21008;-82
2022/02/17 04:38:59;;;;;;;65.03;29.12;;;;;;;-2.13;89.91;96889.87;1723440;83;21043;-81
2022/02/17 04:44:14;;;;;;;63.52;27.85;;;;;;;-2.00;89.43;96883.85;1722297;83;21011;-82
2022/02/17 04:46:42;;;;;;;60.83;28.05;;;;;;;-1.94;89.58;96870.02;1722537;83;21414;-81
2022/02/17 04:49:09;;;;;;;51.88;24.70;;;;;;;-1.90;89.69;96857.91;1722672;83;21015;-82
2022/02/17 04:51:36;;;;;;;47.40;22.95;;;;;;;-1.88;89.36;96845.36;1722577;83;21012;-82
2022/02/17 04:54:03;;;;;;;49.88;22.25;;;;;;;-1.88;89.10;96841.88;1722529;83;21103;-82
2022/02/17 04:56:30;;;;;;;45.92;21.30;;;;;;;-1.91;88.67;96845.80;1722394;83;21422;-82
2022/02/17 04:58:57;;;;;;;50.15;22.60;;;;;;;-1.93;88.83;96857.47;1722853;83;21024;-82
2022/02/17 05:01:25;;;;;;;50.25;22.32;;;;;;;-1.92;89.08;96837.54;1723271;83;21059;-83
2022/02/17 05:03:54;;;;;;;52.78;23.27;;;;;;;-1.97;89.02;96829.76;1724079;83;21007;-83
2022/02/17 05:06:21;;;;;;;57.45;26.48;;;;;;;-1.95;89.07;96833.21;1723958;83;21016;-82
2022/02/17 05:08:52;;;;;;;61.00;27.02;;;;;;;-1.96;89.06;96843.17;1722306;83;21388;-82
2022/02/17 05:11:20;;;;;;;56.80;26.15;;;;;;;-1.93;89.71;96831.92;1722476;83;21472;-82
2022/02/17 05:13:48;;;;;;;55.25;25.27;;;;;;;-1.94;88.96;96842.76;1698337;83;21492;-82
2022/02/17 05:16:17;;;;;;;48.60;23.25;;;;;;;-1.99;89.50;96852.27;1722540;83;20993;-82
2022/02/17 05:18:45;;;;;;;54.58;25.77;;;;;;;-2.08;90.55;96850.50;1718620;82;21106;-82
2022/02/17 05:21:22;;;;;;;54.23;24.52;;;;;;;-2.11;90.30;96845.33;1721641;83;20999;-82
2022/02/17 05:23:54;;;;;;;59.80;26.60;;;;;;;-2.10;90.40;96836.66;1718139;83;21492;-82
2022/02/17 05:26:22;;;;;;;58.55;26.15;;;;;;;-2.09;89.98;96840.98;1721595;83;21154;-82
2022/02/17 05:28:50;;;;;;;56.75;27.15;;;;;;;-2.05;90.04;96828.45;1719863;83;21008;-83
2022/02/17 05:31:24;;;;;;;55.52;26.55;;;;;;;-1.99;90.14;96833.64;1688000;83;21051;-82
2022/02/17 05:33:59;;;;;;;;;;;;;;;-1.92;90.13;96826.73;1690398;83;21012;-82
2022/02/17 05:36:42;;;;;;;54.90;26.23;;;;;;;-1.88;89.63;96822.41;1717146;83;20115;-82
2022/02/17 05:39:27;;;;;;;67.27;29.55;;;;;;;-1.89;90.23;96829.77;1721109;83;21047;-82
2022/02/17 05:41:55;;;;;;;61.23;29.25;;;;;;;-1.86;89.50;96841.47;1721295;83;20968;-82
2022/02/17 05:44:22;;;;;;;61.33;27.58;;;;;;;-1.90;89.56;96835.83;1721252;83;21448;-82
2022/02/17 05:46:52;;;;;;;53.87;26.87;;;;;;;-1.90;89.58;96852.30;1721172;83;21035;-82
2022/02/17 05:49:18;;;;;;;58.13;28.98;;;;;;;-1.93;89.72;96861.36;1721315;83;21062;-82
2022/02/17 05:51:48;;;;;;;62.53;28.45;;;;;;;-1.93;89.76;96861.78;1721405;83;21382;-83
2022/02/17 05:54:13;;;;;;;61.20;27.98;;;;;;;-1.91;90.07;96859.63;1721274;82;21071;-81
2022/02/17 05:56:42;;;;;;;60.67;27.82;;;;;;;-1.92;90.24;96850.53;1717654;82;20995;-80
2022/02/17 05:59:09;;;;;;;59.90;28.83;;;;;;;-1.96;90.92;96858.75;1720647;82;21031;-81
2022/02/17 06:01:35;;;;;;;53.33;25.43;;;;;;;-1.97;90.61;96863.52;1720686;83;21059;-80
2022/02/17 06:04:02;;;;;;;52.80;25.43;;;;;;;-2.03;90.47;96849.23;1726461;82;21003;-81
2022/02/17 06:06:28;;;;;;;49.55;24.27;;;;;;;-2.10;91.07;96853.96;1730198;82;21008;-81
2022/02/17 06:08:55;;;;;;;53.15;23.70;;;;;;;-2.16;90.42;96860.02;1721263;83;20980;-82
2022/02/17 06:11:21;;;;;;;50.90;24.07;;;;;;;-2.29;91.57;96863.87;1721615;83;20979;-81
2022/02/17 06:13:48;;;;;;;51.50;23.60;;;;;;;-2.29;91.29;96856.08;1724821;82;20992;-82
2022/02/17 06:16:15;;;;;;;52.80;24.75;;;;;;;-2.30;91.21;96851.77;1728288;82;21008;-81
2022/02/17 06:18:41;;;;;;;54.00;25.23;;;;;;;-2.28;91.86;96843.53;1715591;83;21012;-81
2022/02/17 06:21:08;;;;;;;51.92;24.10;;;;;;;-2.20;91.80;96832.32;1709927;83;21000;-80
2022/02/17 06:23:35;;;;;;;55.88;25.95;;;;;;;-2.17;91.58;96834.48;1706409;84;20985;-81
2022/02/17 06:26:02;;;;;;;59.15;25.77;;;;;;;-2.09;90.82;96807.66;1709569;82;20992;-81
2022/02/17 06:28:29;;;;;;;53.20;25.20;;;;;;;-2.05;91.65;96814.17;1708649;82;21473;-81
2022/02/17 06:30:56;;;;;;;55.00;27.48;;;;;;;-1.97;90.69;96809.41;1708720;83;21011;-81
2022/02/17 06:33:23;;;;;;;65.00;27.60;;;;;;;-1.97;90.48;96789.93;1709368;83;21479;-81
2022/02/17 06:35:49;;;;;;;61.92;28.02;;;;;;;-1.95;91.28;96796.02;1709635;83;21032;-81
2022/02/17 06:38:16;;;;;;;62.55;27.32;;;;;;;-2.00;90.79;96785.19;1707111;82;21036;-80
2022/02/17 06:40:42;;;;;;;54.10;25.60;;;;;;;-2.00;91.96;96782.59;1666090;85;21466;-80
2022/02/17 06:43:12;;;;;;;62.53;30.27;;;;;;;-1.97;91.00;96774.35;1708043;84;20989;-81
2022/02/17 06:45:41;;;;;;;63.15;29.25;;;;;;;-1.89;90.99;96770.91;1709257;83;21015;-81
2022/02/17 06:48:09;;;;;;;64.35;27.75;;;;;;;-1.86;92.50;96772.19;1691820;82;20962;-81
2022/02/17 06:50:38;;;;;;;65.67;29.57;;;;;;;-1.81;91.57;96773.52;1702952;83;21017;-81
2022/02/17 06:53:07;;;;;;;66.42;31.10;;;;;;;-1.69;90.98;96762.67;1706189;83;21013;-82
2022/02/17 06:55:34;;;;;;;76.87;34.08;;;;;;;-1.62;91.33;96758.77;1703706;84;21001;-81
2022/02/17 06:58:02;;;;;;;81.55;34.03;;;;;;;-1.52;91.40;96771.75;1699762;83;21027;-80
2022/02/17 07:00:29;;;;;;;89.00;35.52;;;;;;;-1.41;91.77;96758.74;1701311;84;21001;-81
2022/02/17 07:02:56;;;;;;;89.70;35.52;;;;;;;-1.34;91.80;96745.73;1708188;83;21016;-81
2022/02/17 07:05:25;;;;;;;98.42;37.10;;;;;;;-1.26;91.63;96733.13;1710339;82;21076;-81
2022/02/17 07:07:52;;;;;;;93.75;36.30;;;;;;;-1.18;91.62;96743.50;1708955;83;21469;-81
2022/02/17 07:10:54;;;;;;;90.95;33.35;;;;;;;-1.12;91.30;96740.91;1693425;84;20954;-82
2022/02/17 07:12:47;;;;;;;85.83;30.88;;;;;;;-1.04;92.03;96745.63;1697350;82;20933;-82
2022/02/17 07:15:15;;;;;;;88.20;31.00;;;;;;;-1.10;92.88;96736.13;1710108;82;20986;-84
2022/02/17 07:17:41;;;;;;;80.40;29.67;;;;;;;-1.06;92.11;96733.08;1710122;84;21393;-83
2022/02/17 07:20:09;;;;;;;70.70;28.17;;;;;;;-0.98;91.38;96734.34;1719774;83;21071;-87
2022/02/17 07:22:35;;;;;;;72.20;28.23;;;;;;;-0.96;91.73;96745.17;1714890;83;21001;-82
2022/02/17 07:25:02;;;;;;;71.07;27.87;;;;;;;-0.89;91.19;96740.81;1710406;84;21045;-84
2022/02/17 07:27:29;;;;;;;69.27;28.07;;;;;;;-0.83;91.44;96750.34;1712117;82;21031;-81
2022/02/17 07:29:56;;;;;;;89.13;33.38;;;;;;;-0.82;91.57;96747.70;1720015;82;20979;-81
2022/02/17 07:32:24;;;;;;;68.47;27.40;;;;;;;-0.78;91.83;96745.97;1717082;83;21067;-80
2022/02/17 07:34:52;;;;;;;69.15;28.17;;;;;;;-0.73;91.82;96745.52;1719024;83;21019;-82
2022/02/17 07:37:19;;;;;;;74.75;27.50;;;;;;;-0.73;91.70;96753.74;1719263;83;21075;-82
2022/02/17 07:39:47;;;;;;;75.08;27.87;;;;;;;-0.69;91.64;96756.34;1719209;83;21016;-82
2022/02/17 07:42:15;;;;;;;68.12;25.80;;;;;;;-0.63;92.04;96747.62;1718980;83;21015;-81
2022/02/17 07:44:43;;;;;;;70.55;26.35;;;;;;;-0.72;93.12;96743.76;1719479;83;20991;-81
2022/02/17 07:47:09;;;;;;;70.45;27.50;;;;;;;-0.69;92.02;96718.61;1719832;83;21028;-81
2022/02/17 07:49:36;;;;;;;69.90;28.85;;;;;;;-0.61;91.77;96719.87;1719847;83;21461;-81
2022/02/17 07:52:02;;;;;;;66.17;28.02;;;;;;;-0.58;92.05;96719.83;1720755;83;21007;-81
2022/02/17 07:54:29;;;;;;;61.10;24.43;;;;;;;-0.52;91.63;96698.55;1721448;83;21074;-81
2022/02/17 07:56:55;;;;;;;75.22;27.40;;;;;;;-0.45;92.49;96714.56;1721403;83;20984;-81
2022/02/17 07:59:22;;;;;;;63.20;25.35;;;;;;;-0.42;92.58;96723.21;1721457;83;21819;-81
2022/02/17 08:01:49;;;;;;;65.57;25.30;;;;;;;-0.33;92.15;96701.91;1721206;83;21027;-81
2022/02/17 08:04:15;;;;;;;68.55;25.95;;;;;;;-0.31;93.31;96716.64;1721225;83;21000;-81
2022/02/17 08:06:43;;;;;;;63.13;25.40;;;;;;;-0.29;92.78;96713.57;1721374;83;21409;-81
2022/02/17 08:09:10;;;;;;;66.95;26.57;;;;;;;-0.21;92.99;96682.27;1721348;83;21470;-82
2022/02/17 08:11:37;;;;;;;74.95;29.05;;;;;;;-0.11;92.73;96695.22;1720536;83;21019;-81
2022/02/17 08:14:04;;;;;;;68.80;29.10;;;;;;;-0.15;92.82;96683.55;1719730;83;21037;-81
2022/02/17 08:16:31;;;;;;;73.60;27.93;;;;;;;-0.08;93.30;96700.41;1719673;83;21031;-81
2022/02/17 08:18:58;;;;;;;68.70;28.57;;;;;;;-0.01;93.09;96700.77;1715775;83;22153;-81
2022/02/17 08:21:24;;;;;;;68.95;27.27;;;;;;;0.05;92.70;96694.23;1708628;83;21144;-82
2022/02/17 08:23:51;;;;;;;72.25;27.27;;;;;;;0.09;92.16;96698.97;1708962;84;21028;-82
2022/02/17 08:26:18;;;;;;;80.42;30.10;;;;;;;0.16;91.87;96690.20;1708222;83;21030;-82
2022/02/17 08:28:44;;;;;;;71.77;27.77;;;;;;;0.23;91.75;96676.26;1708307;83;21001;-81
2022/02/17 08:31:13;;;;;;;74.22;28.32;;;;;;;0.23;92.22;96663.23;1708713;83;21008;-81
2022/02/17 08:33:40;;;;;;;78.67;29.30;;;;;;;0.23;91.58;96651.92;1709892;83;21031;-81
2022/02/17 08:36:07;;;;;;;74.82;28.42;;;;;;;0.26;91.72;96642.79;1709889;83;21445;-81
2022/02/17 08:38:33;;;;;;;73.85;27.10;;;;;;;0.30;91.64;96634.49;1709951;83;21055;-81
2022/02/17 08:41:00;;;;;;;68.80;28.47;;;;;;;0.32;91.22;96632.29;1709529;83;20992;-81
2022/02/17 08:43:26;;;;;;;71.37;27.20;;;;;;;0.36;91.39;96631.38;1708426;83;21004;-81
2022/02/17 08:45:53;;;;;;;83.03;32.40;;;;;;;0.34;91.43;96628.38;1708352;83;21023;-81
2022/02/17 08:48:22;;;;;;;80.83;31.45;;;;;;;0.34;91.00;96606.22;1708373;84;20989;-80
2022/02/17 08:50:50;;;;;;;73.72;30.95;;;;;;;0.37;91.26;96605.73;1708370;83;21013;-81
2022/02/17 08:53:17;;;;;;;78.92;29.70;;;;;;;0.39;91.10;96613.11;1709794;83;21361;-81
2022/02/17 08:55:43;;;;;;;74.20;31.57;;;;;;;0.44;91.25;96603.92;1709798;84;21044;-80
2022/02/17 08:58:10;;;;;;;74.90;31.17;;;;;;;0.50;91.23;96609.06;1709984;83;20976;-81
2022/02/17 09:00:37;;;;;;;76.75;30.90;;;;;;;0.55;91.32;96592.08;1709778;83;21020;-81
2022/02/17 09:03:06;;;;;;;75.28;29.70;;;;;;;0.61;91.40;96586.78;1709629;83;21000;-81
2022/02/17 09:05:33;;;;;;;84.17;31.97;;;;;;;0.71;91.16;96585.36;1709777;83;21044;-81
2022/02/17 09:08:00;;;;;;;84.05;30.00;;;;;;;0.77;91.15;96583.53;1709878;83;20992;-81
2022/02/17 09:10:26;;;;;;;73.78;29.82;;;;;;;0.79;90.74;96566.56;1709876;83;21016;-81
2022/02/17 09:12:53;;;;;;;70.65;28.50;;;;;;;0.83;90.95;96565.61;1708509;84;21043;-81
2022/02/17 09:15:19;;;;;;;71.53;28.95;;;;;;;0.75;91.80;96561.81;1708282;83;21009;-81
2022/02/17 09:17:46;;;;;;;74.30;30.48;;;;;;;0.76;91.36;96540.52;1708392;83;21402;-81
2022/02/17 09:20:15;;;;;;;72.80;30.02;;;;;;;0.80;91.99;96552.64;1708943;83;21059;-81
2022/02/17 09:22:45;;;;;;;75.37;30.88;;;;;;;0.87;91.60;96552.95;1709771;83;21016;-81
2022/02/17 09:25:13;;;;;;;79.60;31.70;;;;;;;0.98;91.41;96538.89;1709833;83;21004;-81
2022/02/17 09:27:40;;;;;;;76.67;32.17;;;;;;;1.07;91.29;96533.53;1709796;83;20996;-81
2022/02/17 09:30:09;;;;;;;84.00;31.23;;;;;;;1.10;91.21;96540.02;1709154;83;21068;-81
2022/02/17 09:32:36;;;;;;;82.97;31.45;;;;;;;1.20;90.94;96532.90;1708401;83;21056;-81
2022/02/17 09:35:03;;;;;;;77.47;29.05;;;;;;;1.32;90.78;96539.67;1708186;83;21024;-82
2022/02/17 09:37:30;;;;;;;77.12;30.88;;;;;;;1.44;91.06;96534.69;1709797;83;21493;-80
2022/02/17 09:39:56;;;;;;;75.10;31.27;;;;;;;1.58;91.43;96525.34;1709398;83;21029;-81
2022/02/17 09:42:23;;;;;;;77.15;30.82;;;;;;;1.74;91.17;96535.05;1708146;83;21465;-81
2022/02/17 09:44:50;;;;;;;79.95;32.67;;;;;;;1.80;91.36;96529.73;1708387;83;21004;-81
2022/02/17 09:47:17;;;;;;;74.47;30.08;;;;;;;1.83;90.63;96524.89;1708428;83;21001;-81
2022/02/17 09:49:44;;;;;;;79.32;31.50;;;;;;;1.95;90.37;96522.03;1708160;83;21008;-81
2022/02/17 09:52:13;;;;;;;89.00;36.23;;;;;;;1.97;90.37;96526.80;1708427;84;20977;-82
2022/02/17 09:54:41;;;;;;;80.10;31.20;;;;;;;2.04;89.92;96507.92;1708304;83;21051;-82
2022/02/17 09:57:08;;;;;;;80.75;33.00;;;;;;;2.10;89.92;96503.03;1708276;83;20988;-82
2022/02/17 09:59:35;;;;;;;76.72;30.90;;;;;;;2.17;90.15;96503.34;1708549;84;21020;-82
2022/02/17 10:02:06;;;;;;;81.82;31.15;;;;;;;2.24;89.93;96501.44;1710033;83;21004;-82
2022/02/17 10:04:33;;;;;;;71.05;31.48;;;;;;;2.31;89.60;96489.10;1709908;83;21087;-82
2022/02/17 10:07:03;;;;;;;73.00;31.30;;;;;;;2.40;89.59;96484.98;1710032;83;21031;-82
2022/02/17 10:09:46;;;;;;;76.92;31.65;;;;;;;2.45;89.37;96468.75;1710242;83;21358;-82
2022/02/17 10:12:17;;;;;;;75.57;31.07;;;;;;;2.50;89.36;96459.05;1710228;83;21386;-82
2022/02/17 10:14:45;;;;;;;73.72;31.75;;;;;;;2.57;89.18;96455.85;1710101;83;21417;-83
2022/02/17 10:17:15;;;;;;;76.28;31.80;;;;;;;2.75;89.64;96427.56;1709943;83;21008;-82
2022/02/17 10:19:49;;;;;;;68.70;31.23;;;;;;;2.76;88.86;96431.45;1709771;83;21020;-82
2022/02/17 10:22:30;;;;;;;76.00;31.25;;;;;;;2.81;89.46;96410.83;1709952;83;20981;-82
2022/02/17 10:24:54;;;;;;;77.15;32.20;;;;;;;2.90;89.14;96404.08;1707889;84;21017;-81
2022/02/17 10:27:33;;;;;;;71.15;31.65;;;;;;;3.00;88.71;96382.00;1708403;84;20973;-81
2022/02/17 10:30:09;;;;;;;80.15;32.98;;;;;;;3.01;88.83;96359.32;1708247;83;21119;-81
2022/02/17 10:32:52;;;;;;;81.40;33.05;;;;;;;3.15;88.72;96341.94;1708942;83;21016;-81
2022/02/17 10:35:18;;;;;;;76.02;33.83;;;;;;;3.30;88.77;96313.19;1709994;83;21525;-81
2022/02/17 10:37:52;;;;;;;76.02;33.38;;;;;;;3.43;88.66;96321.55;1709994;84;21032;-81
2022/02/17 10:40:30;;;;;;;77.12;34.78;;;;;;;3.58;88.69;96323.33;1710014;83;21036;-81
2022/02/17 10:43:00;;;;;;;69.05;32.58;;;;;;;3.83;88.80;96313.00;1709443;83;21027;-81
2022/02/17 10:45:27;;;;;;;69.20;31.10;;;;;;;4.10;87.86;96296.02;1705560;84;21057;-81
2022/02/17 10:48:13;;;;;;;63.98;31.77;;;;;;;4.22;86.19;96276.41;1708981;83;21008;-81
2022/02/17 10:50:40;;;;;;;63.30;31.20;;;;;;;4.27;87.00;96274.50;1709178;83;21012;-81
2022/02/17 10:53:23;;;;;;;67.82;32.83;;;;;;;4.60;87.40;96265.13;1708519;83;21390;-82
2022/02/17 10:55:59;;;;;;;65.10;31.33;;;;;;;4.95;84.88;96242.97;1708099;83;21000;-82
2022/02/17 10:58:30;;;;;;;60.10;29.20;;;;;;;4.94;84.75;96239.47;1708489;83;21000;-82
2022/02/17 11:01:02;;;;;;;57.03;27.42;;;;;;;4.96;84.66;96225.85;1708285;83;21020;-82
2022/02/17 11:03:36;;;;;;;50.28;25.68;;;;;;;5.14;85.84;96205.94;1708468;83;21024;-82
2022/02/17 11:06:01;;;;;;;44.05;23.35;;;;;;;5.62;83.65;96188.84;1709899;84;21051;-82
2022/02/17 11:08:28;;;;;;;43.17;23.25;;;;;;;6.11;82.20;96184.34;1709872;83;21433;-81
2022/02/17 11:10:56;;;;;;;45.23;23.70;;;;;;;6.47;81.45;96165.30;1709967;83;20984;-81
2022/02/17 11:13:25;;;;;;;41.28;22.65;;;;;;;6.69;82.48;96146.80;1709963;83;21039;-81
2022/02/17 11:15:56;;;;;;;46.63;23.83;;;;;;;7.84;84.08;96109.05;1709756;83;21016;-81
2022/02/17 11:18:23;;;;;;;39.75;22.25;;;;;;;9.39;76.27;96098.06;1710029;83;21016;-81
2022/02/17 11:20:53;;;;;;;37.38;21.77;;;;;;;10.75;75.14;96096.45;1709669;83;21050;-81
2022/02/17 11:23:30;;;;;;;40.12;22.20;;;;;;;11.98;73.61;96103.83;1709817;83;21383;-81
2022/02/17 11:25:59;;;;;;;31.62;20.55;;;;;;;13.01;65.69;96099.18;1681456;85;21020;-80
2022/02/17 11:28:37;;;;;;;30.10;19.40;;;;;;;13.95;58.04;96085.42;1681396;85;21064;-79